»·PEaware :: N2Q KRKS-KJAC

N2Q :: KRKS-KJAC

FLIGHT INFORMATION

Flight Status: Arrived
Operator: Privately registered:
United States
More flights under this callsign
Pilot: Alex K. (14822)
Aircraft: CESSNA 550 CITATION 2/S2/BRAVO
(C550)
More flights by this aircraft type
Origin: KRKS Rock Springs-Sweetwater
United States
Destination: KJAC Jackson Hole
United States
More flights between these airports :: More routes between these airports
Route: OCS V328 BPI DNW
File this flight plan on PilotEdge
Remarks:
Altitude:
(Current/Filed)
24,000ft
Speed:
(Current/Filed)
220kts
Departed: 01-Nov-18 08:34 AM
Arrived: 01-Nov-18 09:09 AM
Distance/Time
Traveled:
141nm/0:35
Distance/Time
To Go:
Arrived

Flight Plot

Page will automatically refresh every two minutes.

Flight plan parsing failed; only flown route is shown


Map Options




Map Legend


Flown Route
Filed Route
Departure Airport
Arrival Airport
Navaid (VOR, NDB)
Fix

Horizontal Profiles

Position Reports

Time Latitude Longitude Heading Altitude Ground
Speed
01-Nov-18 08:24 41.598544 -109.064324 315 6741ft 0kts
01-Nov-18 08:25 41.598544 -109.064324 315 6741ft 0kts
01-Nov-18 08:26 41.598609 -109.064405 320 6741ft 4kts
01-Nov-18 08:27 41.595976 -109.066160 103 6741ft 20kts
01-Nov-18 08:28 41.594575 -109.058272 103 6741ft 23kts
01-Nov-18 08:29 41.593070 -109.049697 103 6741ft 23kts
01-Nov-18 08:30 41.592417 -109.046762 144 6741ft 0kts
01-Nov-18 08:31 41.592417 -109.046762 144 6741ft 0kts
01-Nov-18 08:32 41.592417 -109.046762 144 6741ft 0kts
01-Nov-18 08:33 41.592417 -109.046762 144 6741ft 0kts
01-Nov-18 08:34 41.592417 -109.046762 144 6741ft 0kts
01-Nov-18 08:35 41.592417 -109.046762 144 6741ft 0kts
01-Nov-18 08:36 41.591874 -109.046724 199 6741ft 10kts
01-Nov-18 08:37 41.606609 -109.078827 339 7846ft 217kts
01-Nov-18 08:38 41.663494 -109.116400 328 12350ft 235kts
01-Nov-18 08:39 41.719602 -109.166241 325 16015ft 252kts
01-Nov-18 08:40 41.777202 -109.219743 325 19181ft 265kts
01-Nov-18 08:41 41.835496 -109.282365 321 21994ft 278kts
01-Nov-18 08:42 41.896913 -109.349634 320 23987ft 308kts
01-Nov-18 08:43 41.970087 -109.430059 321 24001ft 365kts
01-Nov-18 08:44 42.047111 -109.514899 321 23999ft 356kts
01-Nov-18 08:45 42.121689 -109.597354 321 24000ft 356kts
01-Nov-18 08:46 42.199026 -109.683141 320 24000ft 369kts
01-Nov-18 08:47 42.278085 -109.771117 320 24000ft 375kts
01-Nov-18 08:48 42.358393 -109.860786 320 24000ft 377kts
01-Nov-18 08:49 42.439083 -109.951194 320 23999ft 377kts
01-Nov-18 08:50 42.519833 -110.041986 320 24000ft 378kts
01-Nov-18 08:51 42.608425 -110.111000 347 24000ft 378kts
01-Nov-18 08:52 42.712284 -110.132762 352 24000ft 378kts
01-Nov-18 08:53 42.813563 -110.150926 352 24000ft 379kts
01-Nov-18 08:54 42.916866 -110.169434 352 24000ft 379kts
01-Nov-18 08:55 43.020852 -110.188126 352 23933ft 381kts
01-Nov-18 08:56 43.118939 -110.205781 352 22565ft 341kts
01-Nov-18 08:57 43.212146 -110.222666 352 20568ft 339kts
01-Nov-18 08:58 43.303898 -110.239319 352 18689ft 333kts
01-Nov-18 08:59 43.393298 -110.255589 352 17194ft 323kts
01-Nov-18 08:59 43.466924 -110.269033 352 15941ft 319kts
01-Nov-18 09:01 43.568660 -110.287661 352 14192ft 316kts
01-Nov-18 09:01 43.637818 -110.300334 352 13998ft 291kts
01-Nov-18 09:03 43.731870 -110.317673 352 14000ft 297kts
01-Nov-18 09:04 43.806358 -110.352844 299 13640ft 297kts
01-Nov-18 09:04 43.818093 -110.441407 269 12812ft 258kts
01-Nov-18 09:06 43.808094 -110.545772 247 11643ft 234kts
01-Nov-18 09:06 43.784526 -110.614130 229 10566ft 239kts
01-Nov-18 09:07 43.735676 -110.673440 212 9088ft 229kts
01-Nov-18 09:08 43.687198 -110.698966 199 7983ft 135kts
01-Nov-18 09:09 43.657224 -110.713539 199 7337ft 112kts
01-Nov-18 09:10 43.627970 -110.727756 199 6734ft 111kts
01-Nov-18 09:11 43.604522 -110.739123 199 6425ft 33kts
01-Nov-18 09:12 43.598850 -110.739879 109 6425ft 14kts
01-Nov-18 09:13 43.599196 -110.738965 108 6425ft 0kts
01-Nov-18 09:14 43.599196 -110.738965 108 6425ft 0kts
01-Nov-18 09:15 43.599196 -110.738965 108 6425ft 0kts
01-Nov-18 09:16 43.599196 -110.738965 108 6425ft 0kts
01-Nov-18 09:17 43.599196 -110.738965 108 6425ft 0kts
01-Nov-18 09:18 43.599196 -110.738965 108 6425ft 0kts

Navigation Log

Ident Type
Flight plan parsing failed, navigation log unavailable